Airfield :
LOGIN :

Register | Disclaimer

   EN    FR    IT 

 










Legend :    VFR   Marginal VFR   IFR   Intensive IFR   Very Intensive IFR
Visi :
Ceiling :
>= 8 km
>= 3000ft
5 to 8 km
1000 to 3000 ft
1500m to 5 km
500 to 1000 ft
800 to 1500m
200 to 500 ft
< 800m
< 200 ft
Symbols :   Thunderstorms  Fog  Heavy snow  Heavy precipitations  Wind > 20 kt
SIGMETs :     Misc.  Thunderstorms  Icing  Turbulence  Mountain Waves  Volcanic Ashes







- Airport Elevation : 39 ft
- IATA code : ANR


EBAW - Anvers / Antwerpen Deurne

CURRENT METAR :
  • 220550Z 27008KT 7000 FEW007 BKN047 09/08 Q1006 NOSIG

EXPIRED METARs :
  • 220520Z AUTO 27008KT 5000 // FEW005/// SCT007/// OVC044/// 09/08 Q1006
  • 220450Z AUTO 25007KT 5000 // SCT004/// BKN006/// OVC008/// 08/08 Q1006
  • 220420Z AUTO 27008KT 5000 // BKN004/// OVC006/// 08/08 Q1006
  • 220350Z AUTO 26009KT 3200 BR OVC003/// 07/07 Q1006

TAF TAF EBAW
Valid from the 22 at 06:00 until the 22 at 15:00 UTC


220510Z 2206/2215 28007KT 9999 SCT040
TEMPO 2206/2207 BKN006
No reported NOTAMs for that airfield.



MET'MAP, your aeronautical weather chart ! - Copyright ORBIFLY December 2007 - Disclaimer

ORBIFLY MET'MAP TEAM :

Programming & Development : Alexandra Zaïnal
Concept & Development : Baudouin d'Aumeries
Co-Development & Prog : Marc-Olivier Méhu
Technical & hardware support : Manuel Goepfert

Contact : metmap@orbifly.com




SOURCES & CREDITS :

   NOAA